Time;durP1;ratioP1;P1;durP2;ratioP2;P2;SDS_P1;SDS_P2;PMS_P1;PMS_P2;Temp;Humidity;BMP_temperature;BMP_pressure;BME280_temperature;BME280_humidity;BME280_pressure;Samples;Min_cycle;Max_cycle;Signal;HPM_P1;HPM_P2
2023/01/27 00:09:00;;;;;;;28.6;15.5;;;;;;;0;85.2;98930;;;;
2023/01/27 00:19:00;;;;;;;28.6;15.5;;;;;;;0;85.2;98920;;;;
2023/01/27 00:29:00;;;;;;;28.6;15.5;;;;;;;0.1;85.2;98920;;;;
2023/01/27 00:40:00;;;;;;;28;15.7;;;;;;;-0.1;85.7;98920;;;;
2023/01/27 00:51:00;;;;;;;28;15.7;;;;;;;0;85.5;98920;;;;
2023/01/27 01:01:00;;;;;;;28;15.7;;;;;;;0;85.7;98920;;;;
2023/01/27 01:12:00;;;;;;;27.3;15.6;;;;;;;-0.1;85.8;98920;;;;
2023/01/27 01:22:00;;;;;;;27.3;15.6;;;;;;;-0.2;86;98910;;;;
2023/01/27 01:32:00;;;;;;;27.3;15.6;;;;;;;-0.2;85.8;98900;;;;
2023/01/27 01:43:00;;;;;;;28.7;16.5;;;;;;;-0.2;85.8;98900;;;;
2023/01/27 01:53:00;;;;;;;28.7;16.5;;;;;;;-0.4;85.6;98910;;;;
2023/01/27 02:03:00;;;;;;;28.7;16.5;;;;;;;-0.3;85.5;98900;;;;
2023/01/27 02:14:00;;;;;;;35.6;20.3;;;;;;;-0.4;85.2;98900;;;;
2023/01/27 02:24:00;;;;;;;35.6;20.3;;;;;;;-0.3;85.1;98900;;;;
2023/01/27 02:35:00;;;;;;;35.6;20.3;;;;;;;-0.3;84.9;98910;;;;
2023/01/27 02:46:00;;;;;;;25.5;14.4;;;;;;;-0.3;84.9;98910;;;;
2023/01/27 02:57:00;;;;;;;25.5;14.4;;;;;;;-0.3;85.1;98910;;;;
2023/01/27 03:07:00;;;;;;;26.5;12.8;;;;;;;-0.2;85.2;98910;;;;
2023/01/27 03:28:00;;;;;;;26.5;12.8;;;;;;;-0.5;85.4;98900;;;;
2023/01/27 03:49:00;;;;;;;31;16.8;;;;;;;-0.4;85.3;98880;;;;
2023/01/27 03:59:00;;;;;;;31;16.8;;;;;;;-0.4;85.2;98900;;;;
2023/01/27 04:10:00;;;;;;;25.6;14.2;;;;;;;-0.4;85.2;98890;;;;
2023/01/27 04:21:00;;;;;;;25.6;14.2;;;;;;;-0.4;85;98890;;;;
2023/01/27 04:31:00;;;;;;;25.6;14.2;;;;;;;-0.5;84.7;98890;;;;
2023/01/27 04:41:00;;;;;;;31.7;15.3;;;;;;;-0.5;84.7;98900;;;;
2023/01/27 04:51:00;;;;;;;31.7;15.3;;;;;;;-0.5;83.8;98890;;;;
2023/01/27 05:02:00;;;;;;;31.7;15.3;;;;;;;-0.7;82.6;98900;;;;
2023/01/27 05:12:00;;;;;;;17.1;9.4;;;;;;;-0.5;82.2;98900;;;;
2023/01/27 05:22:00;;;;;;;17.1;9.4;;;;;;;-0.6;81.2;98900;;;;
2023/01/27 05:33:00;;;;;;;17.1;9.4;;;;;;;-0.5;81.2;98900;;;;
2023/01/27 05:44:02;;;;;;;;;;;;;;;;;;;;;
2023/01/27 05:54:00;;;;;;;20;10;;;;;;;-0.7;80.8;98910;;;;
2023/01/27 06:04:00;;;;;;;20;10;;;;;;;-0.6;80.7;98920;;;;
2023/01/27 06:15:00;;;;;;;16.5;9;;;;;;;-0.6;80.6;98930;;;;
2023/01/27 06:26:00;;;;;;;16.5;9;;;;;;;-0.6;80.9;98930;;;;
2023/01/27 06:37:00;;;;;;;19.5;9.7;;;;;;;-0.5;81.1;98940;;;;
2023/01/27 06:47:00;;;;;;;19.5;9.7;;;;;;;-0.5;80.7;98940;;;;
2023/01/27 06:58:00;;;;;;;19.5;9.7;;;;;;;-0.6;80.8;98950;;;;
2023/01/27 07:08:00;;;;;;;17.6;10.6;;;;;;;-0.5;80.8;98950;;;;
2023/01/27 07:18:00;;;;;;;17.6;10.6;;;;;;;-0.6;80.6;98950;;;;
2023/01/27 07:29:00;;;;;;;17.6;10.6;;;;;;;-0.6;80.6;98960;;;;
2023/01/27 07:39:00;;;;;;;19.6;10.6;;;;;;;-0.5;80.4;98960;;;;
2023/01/27 07:49:00;;;;;;;19.6;10.6;;;;;;;-0.5;80;98970;;;;
2023/01/27 08:00:00;;;;;;;19.6;10.6;;;;;;;-0.3;79.8;98970;;;;
2023/01/27 08:11:00;;;;;;;20.9;12;;;;;;;-0.5;79.7;98980;;;;
2023/01/27 08:22:00;;;;;;;20.9;12;;;;;;;-0.2;79.5;98990;;;;
2023/01/27 08:32:00;;;;;;;20.9;12;;;;;;;-0.2;79.4;98990;;;;
2023/01/27 08:43:00;;;;;;;22.2;11.4;;;;;;;-0.1;78.7;99000;;;;
2023/01/27 08:53:00;;;;;;;22.2;11.4;;;;;;;-0.1;78.4;99010;;;;
2023/01/27 09:04:00;;;;;;;22.2;11.4;;;;;;;0;78.3;99010;;;;
2023/01/27 09:14:00;;;;;;;22.6;11.5;;;;;;;0.4;77.8;99010;;;;
2023/01/27 09:25:00;;;;;;;22.6;11.5;;;;;;;0.5;76.8;99010;;;;
2023/01/27 09:36:00;;;;;;;22.1;12.3;;;;;;;0.6;76.9;99010;;;;
2023/01/27 09:46:00;;;;;;;22.1;12.3;;;;;;;0.6;76.6;99010;;;;
2023/01/27 09:56:00;;;;;;;22.1;12.3;;;;;;;0.8;76.8;99000;;;;
2023/01/27 10:07:01;;;;;;;23.7;12.7;;;;;;;1;76.3;98990;;;;
2023/01/27 10:17:00;;;;;;;23.7;12.7;;;;;;;1;76.1;98990;;;;
2023/01/27 10:28:00;;;;;;;23.7;12.7;;;;;;;1.2;76.8;98980;;;;
2023/01/27 10:39:00;;;;;;;27.6;16.5;;;;;;;1.3;76.8;98980;;;;
2023/01/27 10:49:00;;;;;;;27.6;16.5;;;;;;;1.3;75.7;98980;;;;
2023/01/27 11:00:00;;;;;;;27.6;16.5;;;;;;;1.4;75.7;98980;;;;
2023/01/27 11:12:04;;;;;;;25.4;15.7;;;;;;;1.7;75.4;98980;;;;
2023/01/27 11:22:00;;;;;;;25.4;15.7;;;;;;;1.8;75.3;98980;;;;
2023/01/27 11:32:00;;;;;;;25.4;15.7;;;;;;;1.5;75.1;98980;;;;
2023/01/27 11:42:00;;;;;;;36.9;23;;;;;;;1.4;75.5;98980;;;;
2023/01/27 11:53:00;;;;;;;36.9;23;;;;;;;1.5;76;98980;;;;
2023/01/27 12:03:00;;;;;;;36.9;23;;;;;;;1.1;76.8;98990;;;;
2023/01/27 12:14:00;;;;;;;28;16.4;;;;;;;1.2;77;98990;;;;
2023/01/27 12:24:00;;;;;;;28;16.4;;;;;;;1.1;77.5;98980;;;;
2023/01/27 12:34:00;;;;;;;28;16.4;;;;;;;1;78.3;98980;;;;
2023/01/27 12:44:00;;;;;;;28.3;14.3;;;;;;;0.9;79.2;98980;;;;
2023/01/27 12:55:00;;;;;;;28.3;14.3;;;;;;;0.8;79.5;98970;;;;
2023/01/27 13:05:00;;;;;;;28.3;14.3;;;;;;;0.9;80.3;98970;;;;
2023/01/27 13:16:00;;;;;;;28;16.9;;;;;;;0.8;80.2;98980;;;;
2023/01/27 13:26:00;;;;;;;28;16.9;;;;;;;0.8;80.3;98980;;;;
2023/01/27 13:37:01;;;;;;;25.1;15.8;;;;;;;0.7;81.1;98990;;;;
2023/01/27 13:47:00;;;;;;;25.1;15.8;;;;;;;0.8;80.8;98990;;;;
2023/01/27 13:57:00;;;;;;;25.1;15.8;;;;;;;0.7;81;98990;;;;
2023/01/27 14:07:00;;;;;;;31.8;16.4;;;;;;;0.8;81.2;99000;;;;
2023/01/27 14:17:00;;;;;;;31.8;16.4;;;;;;;0.8;80.9;99010;;;;
2023/01/27 14:27:00;;;;;;;31.8;16.4;;;;;;;0.7;80.7;99000;;;;
2023/01/27 14:38:00;;;;;;;26.9;15.9;;;;;;;0.6;80.6;99010;;;;
2023/01/27 14:49:00;;;;;;;26.9;15.9;;;;;;;0.7;80.9;99020;;;;
2023/01/27 15:00:00;;;;;;;26.9;15.9;;;;;;;0.5;81;99030;;;;
2023/01/27 15:11:00;;;;;;;23.4;13.8;;;;;;;0.5;80.9;99050;;;;
2023/01/27 15:21:02;;;;;;;23.4;13.8;;;;;;;0.5;81;99050;;;;
2023/01/27 15:32:00;;;;;;;23.4;13.8;;;;;;;0.3;80;99050;;;;
2023/01/27 15:42:00;;;;;;;22.2;14.4;;;;;;;0.4;79.9;99060;;;;
2023/01/27 15:53:00;;;;;;;22.2;14.4;;;;;;;0.3;79.7;99060;;;;
2023/01/27 16:04:01;;;;;;;22.2;14.4;;;;;;;0.4;78.9;99060;;;;
2023/01/27 16:14:00;;;;;;;29.5;15.2;;;;;;;0.3;78.1;99050;;;;
2023/01/27 16:24:01;;;;;;;29.5;15.2;;;;;;;0.2;76.3;99050;;;;
2023/01/27 16:34:00;;;;;;;29.5;15.2;;;;;;;0.2;75.2;99060;;;;
2023/01/27 16:44:01;;;;;;;18.3;11.6;;;;;;;0.1;73.9;99070;;;;
2023/01/27 16:54:00;;;;;;;18.3;11.6;;;;;;;0.1;73.4;99090;;;;
2023/01/27 17:05:00;;;;;;;15.7;9.3;;;;;;;0.1;73;99100;;;;
2023/01/27 17:15:00;;;;;;;15.7;9.3;;;;;;;0.2;73.4;99100;;;;
2023/01/27 17:25:00;;;;;;;15.7;9.3;;;;;;;0.1;72.4;99100;;;;
2023/01/27 17:35:00;;;;;;;12.6;6.7;;;;;;;0.2;72.7;99100;;;;
2023/01/27 17:45:01;;;;;;;12.6;6.7;;;;;;;0.1;72;99100;;;;
2023/01/27 17:56:00;;;;;;;12.6;6.7;;;;;;;0.1;72.5;99110;;;;
2023/01/27 18:07:00;;;;;;;15.7;8.6;;;;;;;0;72.6;99110;;;;
2023/01/27 18:17:00;;;;;;;15.7;8.6;;;;;;;0;72.7;99130;;;;
2023/01/27 18:28:00;;;;;;;15.7;8.6;;;;;;;-0.1;73.2;99140;;;;
2023/01/27 18:38:01;;;;;;;15.5;9.4;;;;;;;-0.1;74;99150;;;;
2023/01/27 18:49:00;;;;;;;15.5;9.4;;;;;;;-0.1;74.1;99160;;;;
2023/01/27 18:59:00;;;;;;;15.5;9.4;;;;;;;-0.1;74.5;99170;;;;
2023/01/27 19:10:01;;;;;;;14.8;10.2;;;;;;;-0.3;74.7;99170;;;;
2023/01/27 19:20:00;;;;;;;14.8;10.2;;;;;;;-0.3;75.3;99180;;;;
2023/01/27 19:30:00;;;;;;;14.8;10.2;;;;;;;-0.4;75.5;99180;;;;
2023/01/27 19:41:00;;;;;;;16.3;9.8;;;;;;;-0.4;75.6;99180;;;;
2023/01/27 19:51:02;;;;;;;16.3;9.8;;;;;;;-0.4;75.9;99180;;;;
2023/01/27 20:02:00;;;;;;;16.3;9.8;;;;;;;-0.5;76.1;99180;;;;
2023/01/27 20:12:01;;;;;;;17.4;10.2;;;;;;;-0.5;76.1;99190;;;;
2023/01/27 20:23:01;;;;;;;17.4;10.2;;;;;;;-0.5;76.1;99200;;;;
2023/01/27 20:33:01;;;;;;;17.4;10.2;;;;;;;-0.5;76.4;99200;;;;
2023/01/27 20:43:01;;;;;;;16.4;10.1;;;;;;;-0.5;76.7;99200;;;;
2023/01/27 20:53:00;;;;;;;16.4;10.1;;;;;;;-0.6;76.9;99200;;;;
2023/01/27 21:04:00;;;;;;;20;10.6;;;;;;;-0.5;77.1;99200;;;;
2023/01/27 21:14:00;;;;;;;20;10.6;;;;;;;-0.5;77.6;99200;;;;
2023/01/27 21:25:00;;;;;;;20;10.6;;;;;;;-0.6;77.7;99190;;;;
2023/01/27 21:35:02;;;;;;;18.7;10;;;;;;;-0.6;77.9;99190;;;;
2023/01/27 21:45:16;;;;;;;18.7;10;;;;;;;-0.6;78.1;99190;;;;
2023/01/27 21:56:00;;;;;;;18.7;10;;;;;;;-0.6;78.1;99190;;;;
2023/01/27 22:06:00;;;;;;;19.6;10.4;;;;;;;-0.7;78.2;99200;;;;
2023/01/27 22:16:01;;;;;;;19.6;10.4;;;;;;;-0.7;77.6;99200;;;;
2023/01/27 22:27:01;;;;;;;19.6;10.4;;;;;;;-0.7;77.7;99190;;;;
2023/01/27 22:38:01;;;;;;;16.7;9.5;;;;;;;-0.6;77.5;99190;;;;
2023/01/27 22:48:00;;;;;;;16.7;9.5;;;;;;;-0.7;77.5;99190;;;;
2023/01/27 22:58:00;;;;;;;16.7;9.5;;;;;;;-0.7;77.6;99190;;;;
2023/01/27 23:09:00;;;;;;;19.4;9.9;;;;;;;-0.6;78;99180;;;;
2023/01/27 23:19:01;;;;;;;19.4;9.9;;;;;;;-0.6;78.1;99180;;;;
2023/01/27 23:30:01;;;;;;;19.4;9.9;;;;;;;-0.7;78;99190;;;;
2023/01/27 23:41:01;;;;;;;21.6;10;;;;;;;-0.7;78;99180;;;;
2023/01/27 23:51:00;;;;;;;21.6;10;;;;;;;-0.7;78.2;99180;;;;
